createdAt,value
2022-10-20T00:01:38.853Z,9.81
2022-10-20T00:06:38.767Z,9.75
2022-10-20T00:11:38.793Z,9.75
2022-10-20T00:16:38.750Z,9.75
2022-10-20T00:21:38.774Z,9.75
2022-10-20T00:26:38.741Z,9.81
2022-10-20T00:31:38.756Z,9.75
2022-10-20T00:36:38.722Z,9.75
2022-10-20T00:41:38.737Z,9.75
2022-10-20T00:46:38.724Z,9.68
2022-10-20T00:51:38.731Z,9.75
2022-10-20T00:56:38.721Z,9.75
2022-10-20T01:01:38.748Z,9.68
2022-10-20T01:06:38.700Z,9.62
2022-10-20T01:11:38.701Z,9.62
2022-10-20T01:16:38.706Z,9.5
2022-10-20T01:21:38.684Z,9.5
2022-10-20T01:26:38.689Z,9.43
2022-10-20T01:31:38.684Z,9.37
2022-10-20T01:36:38.675Z,9.31
2022-10-20T01:41:38.665Z,9.25
2022-10-20T01:46:38.670Z,9.18
2022-10-20T01:51:38.736Z,9.18
2022-10-20T01:56:38.681Z,9.06
2022-10-20T02:01:38.676Z,9
2022-10-20T02:06:38.642Z,8.93
2022-10-20T02:11:38.644Z,8.93
2022-10-20T02:16:38.641Z,8.75
2022-10-20T02:21:38.615Z,8.68
2022-10-20T02:26:38.632Z,8.68
2022-10-20T02:31:38.625Z,8.62
2022-10-20T02:36:38.606Z,8.5
2022-10-20T02:41:38.608Z,8.43
2022-10-20T02:46:38.618Z,8.37
2022-10-20T02:51:38.599Z,8.37
2022-10-20T02:56:38.611Z,8.25
2022-10-20T03:01:38.628Z,8.18
2022-10-20T03:06:38.587Z,8.18
2022-10-20T03:11:38.599Z,8.12
2022-10-20T03:16:38.560Z,8.06
2022-10-20T03:21:38.603Z,8
2022-10-20T03:26:38.579Z,7.93
2022-10-20T03:31:38.625Z,7.87
2022-10-20T03:36:38.553Z,7.81
2022-10-20T03:41:38.550Z,7.81
2022-10-20T03:46:38.540Z,7.81
2022-10-20T03:51:38.563Z,7.68
2022-10-20T03:56:38.535Z,7.68
2022-10-20T04:01:38.591Z,7.56
2022-10-20T04:06:38.510Z,7.62
2022-10-20T04:11:38.517Z,7.56
2022-10-20T04:16:38.513Z,7.5
2022-10-20T04:21:38.515Z,7.43
2022-10-20T04:26:38.603Z,7.31
2022-10-20T04:31:38.499Z,7.43
2022-10-20T04:36:38.498Z,7.43
2022-10-20T04:41:38.500Z,7.31
2022-10-20T04:46:38.491Z,7.37
2022-10-20T04:51:38.481Z,7.31
2022-10-20T04:56:38.485Z,7.25
2022-10-20T05:01:38.539Z,7.18
2022-10-20T05:06:38.462Z,7.12
2022-10-20T05:11:38.479Z,7.06
2022-10-20T05:16:38.453Z,7.06
2022-10-20T05:26:38.456Z,7.06
2022-10-20T05:36:38.446Z,6.62
2022-10-20T05:41:39.060Z,6.56
2022-10-20T05:46:38.469Z,6.5
2022-10-20T05:51:38.446Z,6.43
2022-10-20T06:01:38.435Z,6.93
2022-10-20T06:26:38.401Z,7.68
2022-10-20T06:31:38.400Z,8
2022-10-20T06:36:38.387Z,8.25
2022-10-20T06:41:38.376Z,7.37
2022-10-20T06:46:38.385Z,7.37
2022-10-20T06:51:38.368Z,7.5
2022-10-20T06:56:38.380Z,7.25
2022-10-20T07:01:38.424Z,7.31
2022-10-20T07:06:38.361Z,7.18
2022-10-20T07:11:38.374Z,7.18
2022-10-20T07:16:38.353Z,7.5
2022-10-20T07:21:41.520Z,7.56
2022-10-20T07:26:38.353Z,7.75
2022-10-20T07:31:38.353Z,8.12
2022-10-20T07:36:38.329Z,8.18
2022-10-20T07:41:38.329Z,8.25
2022-10-20T07:46:38.378Z,8.43
2022-10-20T07:51:38.337Z,8.62
2022-10-20T07:56:38.344Z,8.68
2022-10-20T08:01:38.401Z,8.87
2022-10-20T08:06:38.988Z,8.93
2022-10-20T08:11:38.311Z,8.81
2022-10-20T08:16:38.828Z,9.06
2022-10-20T08:21:38.306Z,9
2022-10-20T08:26:38.294Z,9.12
2022-10-20T08:31:38.318Z,9.12
2022-10-20T08:36:38.286Z,9.37
2022-10-20T08:41:55.694Z,9.87
2022-10-20T08:46:38.278Z,9.62
2022-10-20T08:51:38.283Z,10.06
2022-10-20T08:56:38.268Z,9.56
2022-10-20T09:01:38.304Z,10
2022-10-20T09:06:38.263Z,10.31
2022-10-20T09:11:38.263Z,10.18
2022-10-20T09:16:41.849Z,10.81
2022-10-20T09:21:38.243Z,10.81
2022-10-20T09:26:54.583Z,10.93
2022-10-20T09:31:38.226Z,11.06
2022-10-20T09:36:38.211Z,11.31
2022-10-20T09:41:38.236Z,11.31
2022-10-20T09:46:38.214Z,11.5
2022-10-20T09:51:38.221Z,11.75
2022-10-20T09:56:38.225Z,12
2022-10-20T10:01:38.184Z,12
2022-10-20T10:06:38.196Z,12.68
2022-10-20T10:11:38.176Z,12.25
2022-10-20T10:16:38.177Z,12.56
2022-10-20T10:21:38.177Z,12.75
2022-10-20T10:26:38.156Z,13.37
2022-10-20T10:31:38.176Z,13.06
2022-10-20T10:41:38.142Z,12.62
2022-10-20T10:56:38.119Z,13.06
2022-10-20T11:06:38.114Z,13.12
2022-10-20T11:16:38.112Z,13.43
2022-10-20T11:21:38.142Z,13.62
2022-10-20T11:26:38.091Z,13.56
2022-10-20T11:36:38.095Z,13.87
2022-10-20T11:41:38.156Z,13.87
2022-10-20T11:46:38.093Z,13.87
2022-10-20T11:51:38.086Z,14.25
2022-10-20T11:56:38.060Z,13.81
2022-10-20T12:01:38.076Z,14.5
2022-10-20T12:06:38.057Z,14.31
2022-10-20T12:11:38.054Z,14.43
2022-10-20T12:16:38.046Z,14.37
2022-10-20T12:21:38.021Z,14.25
2022-10-20T12:26:41.101Z,14.12
2022-10-20T12:31:38.010Z,14.18
2022-10-20T12:36:38.010Z,14.12
2022-10-20T12:41:38.020Z,14
2022-10-20T12:46:38.082Z,14.18
2022-10-20T12:51:37.995Z,14.12
2022-10-20T12:56:37.984Z,14.31
2022-10-20T13:01:37.990Z,14.18
2022-10-20T13:06:37.976Z,14.25
2022-10-20T13:11:37.979Z,14.93
2022-10-20T13:16:37.964Z,15.18
2022-10-20T13:21:37.978Z,15
2022-10-20T13:26:37.979Z,14.87
2022-10-20T13:31:37.945Z,14.87
2022-10-20T13:36:37.942Z,14.87
2022-10-20T13:41:37.928Z,14.62
2022-10-20T13:46:37.925Z,14.81
2022-10-20T13:51:37.936Z,14.56
2022-10-20T13:56:37.902Z,14.75
2022-10-20T14:01:37.905Z,14.81
2022-10-20T14:06:37.909Z,14.5
2022-10-20T14:11:37.912Z,14.37
2022-10-20T14:16:37.911Z,14.31
2022-10-20T14:21:37.885Z,14.12
2022-10-20T14:26:37.879Z,14.18
2022-10-20T14:31:37.879Z,14.18
2022-10-20T14:36:40.017Z,14.12
2022-10-20T14:41:37.862Z,14.12
2022-10-20T14:46:37.885Z,14.12
2022-10-20T14:51:37.855Z,14.06
2022-10-20T14:56:37.843Z,14
2022-10-20T15:01:37.858Z,14
2022-10-20T15:06:37.834Z,13.75
2022-10-20T15:11:37.832Z,13.75
2022-10-20T15:16:37.823Z,13.62
2022-10-20T15:21:37.810Z,13.62
2022-10-20T15:26:37.834Z,13.37
2022-10-20T15:36:40.297Z,13.25
2022-10-20T15:41:37.795Z,13.25
2022-10-20T15:46:37.789Z,13.06
2022-10-20T15:51:37.784Z,13.12
2022-10-20T15:56:37.766Z,12.93
2022-10-20T16:01:37.797Z,12.87
2022-10-20T16:06:37.765Z,12.56
2022-10-20T16:11:37.750Z,12.43
2022-10-20T16:16:37.751Z,12.31
2022-10-20T16:21:37.756Z,12.12
2022-10-20T16:26:37.741Z,11.93
2022-10-20T16:31:37.741Z,12
2022-10-20T16:36:37.735Z,12
2022-10-20T16:41:37.722Z,11.87
2022-10-20T16:46:37.720Z,11.81
2022-10-20T16:51:37.717Z,11.75
2022-10-20T16:56:37.720Z,11.62
2022-10-20T17:01:37.700Z,11.56
2022-10-20T17:06:37.706Z,11.56
2022-10-20T17:11:37.698Z,11.68
2022-10-20T17:16:37.705Z,11.62
2022-10-20T17:21:37.677Z,11.56
2022-10-20T17:26:37.685Z,11.56
2022-10-20T17:31:37.684Z,11.43
2022-10-20T17:36:37.664Z,11.31
2022-10-20T17:41:37.659Z,11.25
2022-10-20T17:46:37.658Z,11.18
2022-10-20T17:51:37.647Z,11
2022-10-20T17:56:37.649Z,10.87
2022-10-20T18:01:37.720Z,10.87
2022-10-20T18:06:37.626Z,10.75
2022-10-20T18:11:37.640Z,10.37
2022-10-20T18:16:37.613Z,10.37
2022-10-20T18:21:37.607Z,10.5
2022-10-20T18:26:37.615Z,10.43
2022-10-20T18:31:37.630Z,10.37
2022-10-20T18:36:39.069Z,10.5
2022-10-20T18:41:37.582Z,10.56
2022-10-20T18:46:37.598Z,10.75
2022-10-20T18:51:37.588Z,10.75
2022-10-20T18:56:37.561Z,10.75
2022-10-20T19:01:37.587Z,10.81
2022-10-20T19:06:37.569Z,10.87
2022-10-20T19:11:37.611Z,10.81
2022-10-20T19:16:37.559Z,10.93
2022-10-20T19:21:37.561Z,11
2022-10-20T19:26:37.542Z,10.93
2022-10-20T19:31:37.538Z,11.06
2022-10-20T19:41:37.540Z,11
2022-10-20T19:46:37.550Z,10.93
2022-10-20T19:51:37.542Z,10.93
2022-10-20T19:56:37.505Z,10.87
2022-10-20T20:01:37.520Z,10.75
2022-10-20T20:26:37.485Z,10.56
2022-10-20T20:51:37.457Z,10.5
2022-10-20T20:56:37.450Z,10.43
2022-10-20T21:01:37.452Z,10.37
2022-10-20T21:06:56.841Z,10.5
2022-10-20T21:11:37.451Z,10.31
2022-10-20T21:21:37.436Z,10.18
2022-10-20T21:26:37.428Z,9.87
2022-10-20T21:31:37.430Z,9.87
2022-10-20T21:36:37.411Z,9.31
2022-10-20T21:41:37.396Z,9.12
2022-10-20T21:46:37.401Z,9.31
2022-10-20T21:51:37.407Z,9.37
2022-10-20T21:56:37.394Z,9.56
2022-10-20T22:12:02.424Z,9.81
2022-10-20T22:16:37.360Z,9.81
2022-10-20T22:21:37.392Z,9.87
2022-10-20T22:26:37.363Z,9.87
2022-10-20T22:36:37.351Z,10.12
2022-10-20T22:41:37.351Z,10.06
2022-10-20T22:46:37.349Z,10.06
2022-10-20T22:51:37.343Z,10
2022-10-20T22:56:37.334Z,10
2022-10-20T23:01:37.323Z,9.93
2022-10-20T23:06:37.324Z,9.87
2022-10-20T23:11:37.314Z,10.12
2022-10-20T23:16:37.315Z,10.06
2022-10-20T23:21:37.311Z,10
2022-10-20T23:26:37.294Z,10.18
2022-10-20T23:36:38.972Z,10.18
2022-10-20T23:41:37.277Z,10.12
2022-10-20T23:46:37.273Z,10.12
2022-10-20T23:51:37.314Z,10.18
2022-10-20T23:56:37.324Z,10.06
